sensor_id;sensor_type;location;lat;lon;timestamp;temperature;humidity
22813;DHT22;11573;51.334;3.244;2023-02-28T00:01:22;3.70;6.00
22813;DHT22;11573;51.334;3.244;2023-02-28T00:03:49;3.70;4.80
22813;DHT22;11573;51.334;3.244;2023-02-28T00:06:17;3.70;3.50
22813;DHT22;11573;51.334;3.244;2023-02-28T00:08:44;3.70;3.30
22813;DHT22;11573;51.334;3.244;2023-02-28T00:11:13;3.70;4.30
22813;DHT22;11573;51.334;3.244;2023-02-28T00:13:42;3.70;5.20
22813;DHT22;11573;51.334;3.244;2023-02-28T00:16:18;3.70;6.10
22813;DHT22;11573;51.334;3.244;2023-02-28T00:18:46;3.60;7.90
22813;DHT22;11573;51.334;3.244;2023-02-28T00:21:15;3.60;9.00
22813;DHT22;11573;51.334;3.244;2023-02-28T00:23:43;3.60;11.30
22813;DHT22;11573;51.334;3.244;2023-02-28T00:26:11;3.60;17.80
22813;DHT22;11573;51.334;3.244;2023-02-28T00:28:40;3.60;21.20
22813;DHT22;11573;51.334;3.244;2023-02-28T00:31:07;3.60;24.90
22813;DHT22;11573;51.334;3.244;2023-02-28T00:33:35;3.60;33.00
22813;DHT22;11573;51.334;3.244;2023-02-28T00:36:07;3.60;43.50
22813;DHT22;11573;51.334;3.244;2023-02-28T00:38:38;3.60;46.80
22813;DHT22;11573;51.334;3.244;2023-02-28T00:41:05;3.60;50.80
22813;DHT22;11573;51.334;3.244;2023-02-28T00:43:37;3.60;54.60
22813;DHT22;11573;51.334;3.244;2023-02-28T00:46:05;3.60;62.60
22813;DHT22;11573;51.334;3.244;2023-02-28T00:48:32;3.60;61.20
22813;DHT22;11573;51.334;3.244;2023-02-28T00:51:00;3.60;64.60
22813;DHT22;11573;51.334;3.244;2023-02-28T00:53:27;3.60;67.50
22813;DHT22;11573;51.334;3.244;2023-02-28T00:55:56;3.60;67.50
22813;DHT22;11573;51.334;3.244;2023-02-28T00:58:25;3.50;65.30
22813;DHT22;11573;51.334;3.244;2023-02-28T01:00:52;3.50;67.80
22813;DHT22;11573;51.334;3.244;2023-02-28T01:03:21;3.50;69.20
22813;DHT22;11573;51.334;3.244;2023-02-28T01:05:49;3.50;68.40
22813;DHT22;11573;51.334;3.244;2023-02-28T01:08:16;3.50;66.80
22813;DHT22;11573;51.334;3.244;2023-02-28T01:10:43;3.50;66.60
22813;DHT22;11573;51.334;3.244;2023-02-28T01:13:11;3.50;65.10
22813;DHT22;11573;51.334;3.244;2023-02-28T01:15:42;3.50;65.20
22813;DHT22;11573;51.334;3.244;2023-02-28T01:18:11;3.50;64.70
22813;DHT22;11573;51.334;3.244;2023-02-28T01:20:38;3.50;66.40
22813;DHT22;11573;51.334;3.244;2023-02-28T01:23:05;3.40;65.40
22813;DHT22;11573;51.334;3.244;2023-02-28T01:25:37;3.40;66.30
22813;DHT22;11573;51.334;3.244;2023-02-28T01:28:04;3.40;69.20
22813;DHT22;11573;51.334;3.244;2023-02-28T01:30:33;3.40;69.90
22813;DHT22;11573;51.334;3.244;2023-02-28T01:33:00;3.40;71.40
22813;DHT22;11573;51.334;3.244;2023-02-28T01:35:27;3.40;71.50
22813;DHT22;11573;51.334;3.244;2023-02-28T01:37:55;3.30;71.20
22813;DHT22;11573;51.334;3.244;2023-02-28T01:40:30;3.30;72.10
22813;DHT22;11573;51.334;3.244;2023-02-28T01:42:57;3.30;72.40
22813;DHT22;11573;51.334;3.244;2023-02-28T01:45:30;3.30;73.00
22813;DHT22;11573;51.334;3.244;2023-02-28T01:48:02;3.30;76.50
22813;DHT22;11573;51.334;3.244;2023-02-28T01:50:34;3.20;77.80
22813;DHT22;11573;51.334;3.244;2023-02-28T01:53:06;3.20;76.20
22813;DHT22;11573;51.334;3.244;2023-02-28T01:55:34;3.20;78.80
22813;DHT22;11573;51.334;3.244;2023-02-28T01:58:04;3.20;79.10
22813;DHT22;11573;51.334;3.244;2023-02-28T02:00:33;3.20;81.00
22813;DHT22;11573;51.334;3.244;2023-02-28T02:03:06;3.10;80.60
22813;DHT22;11573;51.334;3.244;2023-02-28T02:05:37;3.20;81.90
22813;DHT22;11573;51.334;3.244;2023-02-28T02:08:13;3.10;80.40
22813;DHT22;11573;51.334;3.244;2023-02-28T02:10:57;3.20;81.70
22813;DHT22;11573;51.334;3.244;2023-02-28T02:13:30;3.20;81.90
22813;DHT22;11573;51.334;3.244;2023-02-28T02:22:01;3.30;77.40
22813;DHT22;11573;51.334;3.244;2023-02-28T02:42:28;3.60;60.90
22813;DHT22;11573;51.334;3.244;2023-02-28T02:45:18;3.70;57.90
22813;DHT22;11573;51.334;3.244;2023-02-28T02:47:47;3.80;55.40
22813;DHT22;11573;51.334;3.244;2023-02-28T02:50:22;3.80;52.90
22813;DHT22;11573;51.334;3.244;2023-02-28T02:52:54;3.90;49.80
22813;DHT22;11573;51.334;3.244;2023-02-28T02:55:23;3.90;48.40
22813;DHT22;11573;51.334;3.244;2023-02-28T02:58:00;4.00;48.40
22813;DHT22;11573;51.334;3.244;2023-02-28T03:00:43;4.00;45.80
22813;DHT22;11573;51.334;3.244;2023-02-28T03:03:14;4.10;45.40
22813;DHT22;11573;51.334;3.244;2023-02-28T03:05:48;4.10;42.30
22813;DHT22;11573;51.334;3.244;2023-02-28T03:08:16;4.10;40.30
22813;DHT22;11573;51.334;3.244;2023-02-28T03:10:47;4.10;38.00
22813;DHT22;11573;51.334;3.244;2023-02-28T03:13:46;4.20;35.40
22813;DHT22;11573;51.334;3.244;2023-02-28T03:16:35;4.20;31.90
22813;DHT22;11573;51.334;3.244;2023-02-28T03:19:25;4.20;30.90
22813;DHT22;11573;51.334;3.244;2023-02-28T03:24:56;4.30;26.90
22813;DHT22;11573;51.334;3.244;2023-02-28T03:28:13;4.30;25.60
22813;DHT22;11573;51.334;3.244;2023-02-28T03:30:50;4.30;25.40
22813;DHT22;11573;51.334;3.244;2023-02-28T03:33:32;4.30;25.00
22813;DHT22;11573;51.334;3.244;2023-02-28T03:36:13;4.40;25.00
22813;DHT22;11573;51.334;3.244;2023-02-28T03:41:22;4.30;15.60
22813;DHT22;11573;51.334;3.244;2023-02-28T03:44:11;4.30;11.30
22813;DHT22;11573;51.334;3.244;2023-02-28T03:46:57;4.40;9.00
22813;DHT22;11573;51.334;3.244;2023-02-28T03:49:36;4.40;6.30
22813;DHT22;11573;51.334;3.244;2023-02-28T03:52:06;4.40;2.70
22813;DHT22;11573;51.334;3.244;2023-02-28T03:54:42;4.40;1.00
22813;DHT22;11573;51.334;3.244;2023-02-28T03:57:33;4.50;1.00
22813;DHT22;11573;51.334;3.244;2023-02-28T04:00:30;4.50;1.00
22813;DHT22;11573;51.334;3.244;2023-02-28T04:02:59;4.50;1.00
22813;DHT22;11573;51.334;3.244;2023-02-28T04:05:26;4.50;1.00
22813;DHT22;11573;51.334;3.244;2023-02-28T04:07:54;4.60;1.00
22813;DHT22;11573;51.334;3.244;2023-02-28T04:10:29;4.60;1.00
22813;DHT22;11573;51.334;3.244;2023-02-28T04:12:56;4.60;1.00
22813;DHT22;11573;51.334;3.244;2023-02-28T04:15:23;4.60;1.00
22813;DHT22;11573;51.334;3.244;2023-02-28T04:17:51;4.60;1.00
22813;DHT22;11573;51.334;3.244;2023-02-28T04:20:18;4.60;1.00
22813;DHT22;11573;51.334;3.244;2023-02-28T04:22:45;4.60;1.00
22813;DHT22;11573;51.334;3.244;2023-02-28T04:25:13;4.60;1.00
22813;DHT22;11573;51.334;3.244;2023-02-28T04:27:40;4.60;1.00
22813;DHT22;11573;51.334;3.244;2023-02-28T04:30:11;4.60;1.00
22813;DHT22;11573;51.334;3.244;2023-02-28T04:32:39;4.60;1.00
22813;DHT22;11573;51.334;3.244;2023-02-28T04:35:07;4.60;1.00
22813;DHT22;11573;51.334;3.244;2023-02-28T04:37:37;4.60;1.00
22813;DHT22;11573;51.334;3.244;2023-02-28T04:40:04;4.60;1.00
22813;DHT22;11573;51.334;3.244;2023-02-28T04:42:31;4.60;1.00
22813;DHT22;11573;51.334;3.244;2023-02-28T04:45:03;4.60;1.00
22813;DHT22;11573;51.334;3.244;2023-02-28T04:47:31;4.70;1.00
22813;DHT22;11573;51.334;3.244;2023-02-28T04:49:58;4.70;1.00
22813;DHT22;11573;51.334;3.244;2023-02-28T04:52:25;4.70;1.00
22813;DHT22;11573;51.334;3.244;2023-02-28T04:54:53;4.60;1.00
22813;DHT22;11573;51.334;3.244;2023-02-28T04:57:20;4.70;1.00
22813;DHT22;11573;51.334;3.244;2023-02-28T04:59:47;4.70;1.00
22813;DHT22;11573;51.334;3.244;2023-02-28T05:02:14;4.70;1.00
22813;DHT22;11573;51.334;3.244;2023-02-28T05:04:41;4.60;1.00
22813;DHT22;11573;51.334;3.244;2023-02-28T05:07:08;4.70;1.00
22813;DHT22;11573;51.334;3.244;2023-02-28T05:09:36;4.60;1.00
22813;DHT22;11573;51.334;3.244;2023-02-28T05:12:03;4.60;1.00
22813;DHT22;11573;51.334;3.244;2023-02-28T05:14:30;4.70;1.00
22813;DHT22;11573;51.334;3.244;2023-02-28T05:16:57;4.70;1.00
22813;DHT22;11573;51.334;3.244;2023-02-28T05:19:24;4.70;1.00
22813;DHT22;11573;51.334;3.244;2023-02-28T05:21:55;4.70;1.00
22813;DHT22;11573;51.334;3.244;2023-02-28T05:24:22;4.70;1.00
22813;DHT22;11573;51.334;3.244;2023-02-28T05:26:51;4.70;1.00
22813;DHT22;11573;51.334;3.244;2023-02-28T05:29:19;4.70;1.00
22813;DHT22;11573;51.334;3.244;2023-02-28T05:31:47;4.70;1.00
22813;DHT22;11573;51.334;3.244;2023-02-28T05:34:14;4.70;1.00
22813;DHT22;11573;51.334;3.244;2023-02-28T05:36:42;4.70;1.00
22813;DHT22;11573;51.334;3.244;2023-02-28T05:39:09;4.70;1.00
22813;DHT22;11573;51.334;3.244;2023-02-28T05:41:41;4.70;1.00
22813;DHT22;11573;51.334;3.244;2023-02-28T05:44:09;4.70;1.00
22813;DHT22;11573;51.334;3.244;2023-02-28T05:46:36;4.70;1.00
22813;DHT22;11573;51.334;3.244;2023-02-28T05:49:03;4.60;1.00
22813;DHT22;11573;51.334;3.244;2023-02-28T05:51:31;4.60;1.00
22813;DHT22;11573;51.334;3.244;2023-02-28T05:53:59;4.60;1.00
22813;DHT22;11573;51.334;3.244;2023-02-28T05:56:27;4.60;1.00
22813;DHT22;11573;51.334;3.244;2023-02-28T05:58:54;4.60;1.00
22813;DHT22;11573;51.334;3.244;2023-02-28T06:01:34;4.60;1.00
22813;DHT22;11573;51.334;3.244;2023-02-28T06:04:03;4.60;1.00
22813;DHT22;11573;51.334;3.244;2023-02-28T06:06:31;4.50;1.00
22813;DHT22;11573;51.334;3.244;2023-02-28T06:08:59;4.50;1.00
22813;DHT22;11573;51.334;3.244;2023-02-28T06:11:27;4.50;1.00
22813;DHT22;11573;51.334;3.244;2023-02-28T06:13:59;4.50;1.00
22813;DHT22;11573;51.334;3.244;2023-02-28T06:16:28;4.50;1.00
22813;DHT22;11573;51.334;3.244;2023-02-28T06:19:00;4.50;1.00
22813;DHT22;11573;51.334;3.244;2023-02-28T06:21:28;4.50;1.00
22813;DHT22;11573;51.334;3.244;2023-02-28T06:23:57;4.60;1.00
22813;DHT22;11573;51.334;3.244;2023-02-28T06:26:25;4.60;1.00
22813;DHT22;11573;51.334;3.244;2023-02-28T06:28:52;4.50;1.00
22813;DHT22;11573;51.334;3.244;2023-02-28T06:31:19;4.50;1.00
22813;DHT22;11573;51.334;3.244;2023-02-28T06:33:47;4.50;1.00
22813;DHT22;11573;51.334;3.244;2023-02-28T06:36:15;4.40;1.00
22813;DHT22;11573;51.334;3.244;2023-02-28T06:38:43;4.50;1.00
22813;DHT22;11573;51.334;3.244;2023-02-28T06:41:11;4.50;1.00
22813;DHT22;11573;51.334;3.244;2023-02-28T06:43:40;4.40;1.00
22813;DHT22;11573;51.334;3.244;2023-02-28T06:46:11;4.40;1.00
22813;DHT22;11573;51.334;3.244;2023-02-28T06:48:42;4.50;1.00
22813;DHT22;11573;51.334;3.244;2023-02-28T06:51:16;4.50;1.00
22813;DHT22;11573;51.334;3.244;2023-02-28T06:53:43;4.50;1.00
22813;DHT22;11573;51.334;3.244;2023-02-28T06:56:13;4.50;1.00
22813;DHT22;11573;51.334;3.244;2023-02-28T06:58:41;4.50;1.00
22813;DHT22;11573;51.334;3.244;2023-02-28T07:01:08;4.50;1.00
22813;DHT22;11573;51.334;3.244;2023-02-28T07:03:37;4.50;1.00
22813;DHT22;11573;51.334;3.244;2023-02-28T07:06:06;4.50;1.00
22813;DHT22;11573;51.334;3.244;2023-02-28T07:08:34;4.50;1.00
22813;DHT22;11573;51.334;3.244;2023-02-28T07:11:03;4.50;1.00
22813;DHT22;11573;51.334;3.244;2023-02-28T07:13:30;4.50;1.00
22813;DHT22;11573;51.334;3.244;2023-02-28T07:16:05;4.50;1.00
22813;DHT22;11573;51.334;3.244;2023-02-28T07:18:33;4.40;1.00
22813;DHT22;11573;51.334;3.244;2023-02-28T07:21:06;4.40;3.40
22813;DHT22;11573;51.334;3.244;2023-02-28T07:23:34;4.40;3.10
22813;DHT22;11573;51.334;3.244;2023-02-28T07:26:01;4.40;8.00
22813;DHT22;11573;51.334;3.244;2023-02-28T07:28:28;4.40;8.80
22813;DHT22;11573;51.334;3.244;2023-02-28T07:30:55;4.30;10.60
22813;DHT22;11573;51.334;3.244;2023-02-28T07:33:23;4.30;14.00
22813;DHT22;11573;51.334;3.244;2023-02-28T07:35:51;4.30;15.40
22813;DHT22;11573;51.334;3.244;2023-02-28T07:38:18;4.20;18.80
22813;DHT22;11573;51.334;3.244;2023-02-28T07:40:45;4.10;23.20
22813;DHT22;11573;51.334;3.244;2023-02-28T07:43:12;4.10;30.90
22813;DHT22;11573;51.334;3.244;2023-02-28T07:45:39;4.10;34.90
22813;DHT22;11573;51.334;3.244;2023-02-28T07:48:06;4.10;38.50
22813;DHT22;11573;51.334;3.244;2023-02-28T07:50:36;4.10;42.70
22813;DHT22;11573;51.334;3.244;2023-02-28T07:53:04;4.20;43.80
22813;DHT22;11573;51.334;3.244;2023-02-28T07:55:31;4.10;42.80
22813;DHT22;11573;51.334;3.244;2023-02-28T07:57:58;4.20;44.50
22813;DHT22;11573;51.334;3.244;2023-02-28T08:00:25;4.20;45.00
22813;DHT22;11573;51.334;3.244;2023-02-28T08:02:52;4.10;44.00
22813;DHT22;11573;51.334;3.244;2023-02-28T08:05:19;4.20;51.80
22813;DHT22;11573;51.334;3.244;2023-02-28T08:07:49;4.40;54.70
22813;DHT22;11573;51.334;3.244;2023-02-28T08:10:16;4.40;43.40
22813;DHT22;11573;51.334;3.244;2023-02-28T08:12:43;4.40;40.50
22813;DHT22;11573;51.334;3.244;2023-02-28T08:15:10;4.30;38.30
22813;DHT22;11573;51.334;3.244;2023-02-28T08:17:37;4.50;42.90
22813;DHT22;11573;51.334;3.244;2023-02-28T08:20:05;4.50;40.90
22813;DHT22;11573;51.334;3.244;2023-02-28T08:22:33;4.50;39.30
22813;DHT22;11573;51.334;3.244;2023-02-28T08:25:00;4.50;41.60
22813;DHT22;11573;51.334;3.244;2023-02-28T08:27:27;4.50;40.70
22813;DHT22;11573;51.334;3.244;2023-02-28T08:29:54;4.50;38.10
22813;DHT22;11573;51.334;3.244;2023-02-28T08:32:21;4.40;36.10
22813;DHT22;11573;51.334;3.244;2023-02-28T08:34:56;4.30;43.40
22813;DHT22;11573;51.334;3.244;2023-02-28T08:37:23;4.20;45.30
22813;DHT22;11573;51.334;3.244;2023-02-28T08:39:51;4.30;48.50
22813;DHT22;11573;51.334;3.244;2023-02-28T08:42:23;4.30;49.80
22813;DHT22;11573;51.334;3.244;2023-02-28T08:44:50;4.20;49.20
22813;DHT22;11573;51.334;3.244;2023-02-28T08:47:18;4.00;51.40
22813;DHT22;11573;51.334;3.244;2023-02-28T08:49:46;4.10;65.60
22813;DHT22;11573;51.334;3.244;2023-02-28T08:52:13;4.00;69.70
22813;DHT22;11573;51.334;3.244;2023-02-28T08:54:40;4.00;74.90
22813;DHT22;11573;51.334;3.244;2023-02-28T08:57:07;4.00;75.00
22813;DHT22;11573;51.334;3.244;2023-02-28T08:59:34;4.00;74.20
22813;DHT22;11573;51.334;3.244;2023-02-28T09:02:02;3.90;75.60
22813;DHT22;11573;51.334;3.244;2023-02-28T09:04:29;3.90;81.70
22813;DHT22;11573;51.334;3.244;2023-02-28T09:06:57;3.90;88.30
22813;DHT22;11573;51.334;3.244;2023-02-28T09:09:26;3.70;92.30
22813;DHT22;11573;51.334;3.244;2023-02-28T09:11:55;3.50;94.40
22813;DHT22;11573;51.334;3.244;2023-02-28T09:14:22;3.50;99.90
22813;DHT22;11573;51.334;3.244;2023-02-28T09:16:49;3.50;99.90
22813;DHT22;11573;51.334;3.244;2023-02-28T09:19:16;3.60;99.90
22813;DHT22;11573;51.334;3.244;2023-02-28T09:21:44;3.60;99.90
22813;DHT22;11573;51.334;3.244;2023-02-28T09:24:10;3.60;99.90
22813;DHT22;11573;51.334;3.244;2023-02-28T09:26:41;3.60;99.90
22813;DHT22;11573;51.334;3.244;2023-02-28T09:29:13;3.50;99.90
22813;DHT22;11573;51.334;3.244;2023-02-28T09:31:41;3.60;99.90
22813;DHT22;11573;51.334;3.244;2023-02-28T09:34:08;3.50;99.90
22813;DHT22;11573;51.334;3.244;2023-02-28T09:36:35;3.50;99.90
22813;DHT22;11573;51.334;3.244;2023-02-28T09:39:12;3.30;99.90
22813;DHT22;11573;51.334;3.244;2023-02-28T09:41:44;3.30;99.90
22813;DHT22;11573;51.334;3.244;2023-02-28T09:44:38;3.30;99.90
22813;DHT22;11573;51.334;3.244;2023-02-28T09:47:34;3.20;99.90
22813;DHT22;11573;51.334;3.244;2023-02-28T09:50:17;3.20;99.90
22813;DHT22;11573;51.334;3.244;2023-02-28T09:52:47;3.30;99.90
22813;DHT22;11573;51.334;3.244;2023-02-28T09:55:25;3.20;99.90
22813;DHT22;11573;51.334;3.244;2023-02-28T09:58:00;3.20;99.90
22813;DHT22;11573;51.334;3.244;2023-02-28T10:00:39;3.20;99.90
22813;DHT22;11573;51.334;3.244;2023-02-28T10:05:54;3.30;99.90
22813;DHT22;11573;51.334;3.244;2023-02-28T10:08:36;3.30;99.90
22813;DHT22;11573;51.334;3.244;2023-02-28T10:11:15;3.20;99.90
22813;DHT22;11573;51.334;3.244;2023-02-28T10:13:51;3.30;99.90
22813;DHT22;11573;51.334;3.244;2023-02-28T10:19:09;3.40;98.60
22813;DHT22;11573;51.334;3.244;2023-02-28T10:21:50;3.30;97.10
22813;DHT22;11573;51.334;3.244;2023-02-28T10:24:48;3.30;98.10
22813;DHT22;11573;51.334;3.244;2023-02-28T10:29:49;3.40;97.20
22813;DHT22;11573;51.334;3.244;2023-02-28T10:32:18;3.40;97.50
22813;DHT22;11573;51.334;3.244;2023-02-28T10:37:39;3.30;96.90
22813;DHT22;11573;51.334;3.244;2023-02-28T10:40:32;3.20;98.00
22813;DHT22;11573;51.334;3.244;2023-02-28T10:43:21;3.40;99.90
22813;DHT22;11573;51.334;3.244;2023-02-28T10:58:53;4.00;98.30
22813;DHT22;11573;51.334;3.244;2023-02-28T11:01:42;4.00;94.80
22813;DHT22;11573;51.334;3.244;2023-02-28T11:07:02;4.10;70.80
22813;DHT22;11573;51.334;3.244;2023-02-28T11:09:38;4.20;73.20
22813;DHT22;11573;51.334;3.244;2023-02-28T11:12:37;4.30;66.90
22813;DHT22;11573;51.334;3.244;2023-02-28T11:15:30;4.50;53.90
22813;DHT22;11573;51.334;3.244;2023-02-28T11:18:30;4.70;45.10
22813;DHT22;11573;51.334;3.244;2023-02-28T11:21:01;5.00;44.50
22813;DHT22;11573;51.334;3.244;2023-02-28T11:23:30;4.90;28.40
22813;DHT22;11573;51.334;3.244;2023-02-28T11:26:04;4.90;26.40
22813;DHT22;11573;51.334;3.244;2023-02-28T11:28:42;5.00;15.70
22813;DHT22;11573;51.334;3.244;2023-02-28T11:33:55;5.00;15.50
22813;DHT22;11573;51.334;3.244;2023-02-28T11:38:53;5.30;8.20
22813;DHT22;11573;51.334;3.244;2023-02-28T11:51:08;5.20;1.00
22813;DHT22;11573;51.334;3.244;2023-02-28T12:02:20;5.40;1.00
22813;DHT22;11573;51.334;3.244;2023-02-28T12:31:59;6.10;1.00
22813;DHT22;11573;51.334;3.244;2023-02-28T12:34:33;6.40;1.00
22813;DHT22;11573;51.334;3.244;2023-02-28T12:37:13;6.60;1.00
22813;DHT22;11573;51.334;3.244;2023-02-28T12:39:45;6.70;1.00
22813;DHT22;11573;51.334;3.244;2023-02-28T12:45:05;6.70;1.00
22813;DHT22;11573;51.334;3.244;2023-02-28T12:47:38;6.20;99.90
22813;DHT22;11573;51.334;3.244;2023-02-28T12:50:09;6.10;1.00
22813;DHT22;11573;51.334;3.244;2023-02-28T12:53:03;6.30;99.90
22813;DHT22;11573;51.334;3.244;2023-02-28T12:58:33;6.50;99.90
22813;DHT22;11573;51.334;3.244;2023-02-28T13:09:21;5.70;99.90
22813;DHT22;11573;51.334;3.244;2023-02-28T13:11:53;5.80;99.90
22813;DHT22;11573;51.334;3.244;2023-02-28T13:14:26;5.80;99.90
22813;DHT22;11573;51.334;3.244;2023-02-28T13:17:03;5.80;99.90
22813;DHT22;11573;51.334;3.244;2023-02-28T13:28:10;5.80;99.90
22813;DHT22;11573;51.334;3.244;2023-02-28T13:36:25;5.70;99.90
22813;DHT22;11573;51.334;3.244;2023-02-28T13:38:54;5.60;99.90
22813;DHT22;11573;51.334;3.244;2023-02-28T14:03:10;5.80;99.90
22813;DHT22;11573;51.334;3.244;2023-02-28T14:05:42;5.90;99.90
22813;DHT22;11573;51.334;3.244;2023-02-28T14:08:19;5.90;99.90
22813;DHT22;11573;51.334;3.244;2023-02-28T14:10:49;5.90;99.90
22813;DHT22;11573;51.334;3.244;2023-02-28T14:13:38;5.80;99.90
22813;DHT22;11573;51.334;3.244;2023-02-28T14:16:19;5.90;99.90
22813;DHT22;11573;51.334;3.244;2023-02-28T14:18:51;5.90;99.90
22813;DHT22;11573;51.334;3.244;2023-02-28T14:21:33;5.90;99.90
22813;DHT22;11573;51.334;3.244;2023-02-28T14:29:38;6.20;99.90
22813;DHT22;11573;51.334;3.244;2023-02-28T14:37:49;6.30;99.90
22813;DHT22;11573;51.334;3.244;2023-02-28T14:40:28;6.30;99.90
22813;DHT22;11573;51.334;3.244;2023-02-28T14:43:05;6.30;99.90
22813;DHT22;11573;51.334;3.244;2023-02-28T14:45:34;6.30;99.90
22813;DHT22;11573;51.334;3.244;2023-02-28T14:48:05;6.40;99.90
22813;DHT22;11573;51.334;3.244;2023-02-28T14:50:37;6.40;99.90
22813;DHT22;11573;51.334;3.244;2023-02-28T14:53:09;6.50;99.90
22813;DHT22;11573;51.334;3.244;2023-02-28T14:55:45;6.50;99.90
22813;DHT22;11573;51.334;3.244;2023-02-28T14:58:26;6.50;99.90
22813;DHT22;11573;51.334;3.244;2023-02-28T15:00:55;6.40;99.90
22813;DHT22;11573;51.334;3.244;2023-02-28T15:03:33;6.40;1.00
22813;DHT22;11573;51.334;3.244;2023-02-28T15:08:39;6.40;1.00
22813;DHT22;11573;51.334;3.244;2023-02-28T15:11:11;6.40;1.00
22813;DHT22;11573;51.334;3.244;2023-02-28T15:13:54;6.40;99.90
22813;DHT22;11573;51.334;3.244;2023-02-28T15:16:31;6.40;99.90
22813;DHT22;11573;51.334;3.244;2023-02-28T15:19:12;6.50;99.90
22813;DHT22;11573;51.334;3.244;2023-02-28T15:21:46;6.40;99.90
22813;DHT22;11573;51.334;3.244;2023-02-28T15:24:30;6.30;99.90
22813;DHT22;11573;51.334;3.244;2023-02-28T15:27:02;6.40;99.90
22813;DHT22;11573;51.334;3.244;2023-02-28T15:29:42;6.20;99.90
22813;DHT22;11573;51.334;3.244;2023-02-28T15:32:24;6.20;99.90
22813;DHT22;11573;51.334;3.244;2023-02-28T15:34:52;6.20;99.90
22813;DHT22;11573;51.334;3.244;2023-02-28T15:37:45;6.30;99.90
22813;DHT22;11573;51.334;3.244;2023-02-28T15:40:33;6.40;99.90
22813;DHT22;11573;51.334;3.244;2023-02-28T15:43:17;6.40;99.90
22813;DHT22;11573;51.334;3.244;2023-02-28T15:45:48;6.30;99.90
22813;DHT22;11573;51.334;3.244;2023-02-28T15:48:24;6.30;99.90
22813;DHT22;11573;51.334;3.244;2023-02-28T15:50:55;6.30;99.90
22813;DHT22;11573;51.334;3.244;2023-02-28T15:53:27;6.30;99.90
22813;DHT22;11573;51.334;3.244;2023-02-28T15:56:02;6.20;99.90
22813;DHT22;11573;51.334;3.244;2023-02-28T15:58:30;6.10;99.90
22813;DHT22;11573;51.334;3.244;2023-02-28T16:01:08;6.00;99.90
22813;DHT22;11573;51.334;3.244;2023-02-28T16:03:51;6.00;99.90
22813;DHT22;11573;51.334;3.244;2023-02-28T16:08:46;5.90;99.90
22813;DHT22;11573;51.334;3.244;2023-02-28T16:11:15;5.80;99.90
22813;DHT22;11573;51.334;3.244;2023-02-28T16:13:43;5.80;99.90
22813;DHT22;11573;51.334;3.244;2023-02-28T16:16:19;5.70;99.90
22813;DHT22;11573;51.334;3.244;2023-02-28T16:18:47;5.70;99.90
22813;DHT22;11573;51.334;3.244;2023-02-28T16:21:14;5.60;99.90
22813;DHT22;11573;51.334;3.244;2023-02-28T16:23:41;5.60;99.90
22813;DHT22;11573;51.334;3.244;2023-02-28T16:26:16;5.50;99.90
22813;DHT22;11573;51.334;3.244;2023-02-28T16:28:45;5.50;99.90
22813;DHT22;11573;51.334;3.244;2023-02-28T16:31:13;5.40;99.90
22813;DHT22;11573;51.334;3.244;2023-02-28T16:33:44;5.40;99.90
22813;DHT22;11573;51.334;3.244;2023-02-28T16:36:20;5.30;99.90
22813;DHT22;11573;51.334;3.244;2023-02-28T16:38:48;5.30;99.90
22813;DHT22;11573;51.334;3.244;2023-02-28T16:41:21;5.30;99.90
22813;DHT22;11573;51.334;3.244;2023-02-28T16:43:52;5.20;99.90
22813;DHT22;11573;51.334;3.244;2023-02-28T16:46:20;5.20;99.90
22813;DHT22;11573;51.334;3.244;2023-02-28T16:48:47;5.20;99.90
22813;DHT22;11573;51.334;3.244;2023-02-28T16:51:18;5.10;99.90
22813;DHT22;11573;51.334;3.244;2023-02-28T16:53:45;5.10;99.90
22813;DHT22;11573;51.334;3.244;2023-02-28T16:56:21;5.00;99.90
22813;DHT22;11573;51.334;3.244;2023-02-28T16:58:49;5.10;99.90
22813;DHT22;11573;51.334;3.244;2023-02-28T17:01:18;5.10;99.90
22813;DHT22;11573;51.334;3.244;2023-02-28T17:03:49;5.10;99.90
22813;DHT22;11573;51.334;3.244;2023-02-28T17:06:25;5.10;99.90
22813;DHT22;11573;51.334;3.244;2023-02-28T17:08:56;5.00;99.90
22813;DHT22;11573;51.334;3.244;2023-02-28T17:11:24;5.00;99.90
22813;DHT22;11573;51.334;3.244;2023-02-28T17:13:52;5.00;99.90
22813;DHT22;11573;51.334;3.244;2023-02-28T17:16:32;4.80;99.90
22813;DHT22;11573;51.334;3.244;2023-02-28T17:19:02;4.70;99.90
22813;DHT22;11573;51.334;3.244;2023-02-28T17:21:31;4.60;99.90
22813;DHT22;11573;51.334;3.244;2023-02-28T17:23:59;4.60;99.90
22813;DHT22;11573;51.334;3.244;2023-02-28T17:26:27;4.50;99.90
22813;DHT22;11573;51.334;3.244;2023-02-28T17:28:57;4.50;99.90
22813;DHT22;11573;51.334;3.244;2023-02-28T17:31:25;4.40;99.90
22813;DHT22;11573;51.334;3.244;2023-02-28T17:33:53;4.30;99.90
22813;DHT22;11573;51.334;3.244;2023-02-28T17:36:25;4.40;99.90
22813;DHT22;11573;51.334;3.244;2023-02-28T17:38:54;4.30;99.90
22813;DHT22;11573;51.334;3.244;2023-02-28T17:41:25;4.30;99.90
22813;DHT22;11573;51.334;3.244;2023-02-28T17:43:57;4.20;99.90
22813;DHT22;11573;51.334;3.244;2023-02-28T17:46:24;4.20;99.90
22813;DHT22;11573;51.334;3.244;2023-02-28T17:48:53;4.20;99.90
22813;DHT22;11573;51.334;3.244;2023-02-28T17:51:21;4.10;99.90
22813;DHT22;11573;51.334;3.244;2023-02-28T17:53:49;4.10;99.90
22813;DHT22;11573;51.334;3.244;2023-02-28T17:56:20;4.10;99.90
22813;DHT22;11573;51.334;3.244;2023-02-28T17:58:48;4.10;99.90
22813;DHT22;11573;51.334;3.244;2023-02-28T18:01:16;4.10;99.90
22813;DHT22;11573;51.334;3.244;2023-02-28T18:03:43;4.00;99.90
22813;DHT22;11573;51.334;3.244;2023-02-28T18:06:16;4.00;99.90
22813;DHT22;11573;51.334;3.244;2023-02-28T18:08:45;4.10;99.90
22813;DHT22;11573;51.334;3.244;2023-02-28T18:11:12;4.00;99.90
22813;DHT22;11573;51.334;3.244;2023-02-28T18:13:47;4.00;99.90
22813;DHT22;11573;51.334;3.244;2023-02-28T18:16:16;4.00;99.90
22813;DHT22;11573;51.334;3.244;2023-02-28T18:18:44;4.00;99.90
22813;DHT22;11573;51.334;3.244;2023-02-28T18:21:14;4.00;99.90
22813;DHT22;11573;51.334;3.244;2023-02-28T18:23:42;3.90;99.90
22813;DHT22;11573;51.334;3.244;2023-02-28T18:26:14;3.90;99.90
22813;DHT22;11573;51.334;3.244;2023-02-28T18:28:43;3.90;1.00
22813;DHT22;11573;51.334;3.244;2023-02-28T18:31:12;3.90;99.90
22813;DHT22;11573;51.334;3.244;2023-02-28T18:33:43;3.80;1.00
22813;DHT22;11573;51.334;3.244;2023-02-28T18:36:10;3.80;1.00
22813;DHT22;11573;51.334;3.244;2023-02-28T18:38:38;3.80;1.00
22813;DHT22;11573;51.334;3.244;2023-02-28T18:41:06;3.80;1.00
22813;DHT22;11573;51.334;3.244;2023-02-28T18:43:35;3.80;1.00
22813;DHT22;11573;51.334;3.244;2023-02-28T18:46:09;3.80;1.00
22813;DHT22;11573;51.334;3.244;2023-02-28T18:48:38;3.80;1.00
22813;DHT22;11573;51.334;3.244;2023-02-28T18:51:10;3.80;1.00
22813;DHT22;11573;51.334;3.244;2023-02-28T18:53:38;3.80;1.00
22813;DHT22;11573;51.334;3.244;2023-02-28T18:56:08;3.80;1.00
22813;DHT22;11573;51.334;3.244;2023-02-28T18:58:35;3.70;1.00
22813;DHT22;11573;51.334;3.244;2023-02-28T19:01:04;3.70;1.00
22813;DHT22;11573;51.334;3.244;2023-02-28T19:03:39;3.70;1.00
22813;DHT22;11573;51.334;3.244;2023-02-28T19:06:07;3.70;1.00
22813;DHT22;11573;51.334;3.244;2023-02-28T19:08:34;3.60;1.00
22813;DHT22;11573;51.334;3.244;2023-02-28T19:11:20;3.60;1.00
22813;DHT22;11573;51.334;3.244;2023-02-28T19:13:47;3.60;1.00